createdAt,value
2023-11-12T00:00:56.102Z,66.03
2023-11-12T00:02:20.151Z,65.09
2023-11-12T00:03:24.213Z,65.42
2023-11-12T00:04:27.984Z,65.42
2023-11-12T00:05:31.499Z,65.27
2023-11-12T00:06:35.136Z,65.89
2023-11-12T00:07:38.244Z,66.18
2023-11-12T00:08:42.044Z,64.78
2023-11-12T00:09:45.730Z,64.33
2023-11-12T00:10:49.411Z,63.92
2023-11-12T00:11:53.128Z,64.64
2023-11-12T00:12:57.132Z,64.98
2023-11-12T00:14:01.211Z,64.68
2023-11-12T00:15:08.294Z,65.25
2023-11-12T00:16:12.018Z,65.65
2023-11-12T00:17:17.232Z,65.32
2023-11-12T00:18:20.826Z,64.83
2023-11-12T00:19:24.310Z,64.96
2023-11-12T00:20:28.737Z,65.33
2023-11-12T00:21:32.413Z,65.18
2023-11-12T00:22:36.011Z,65.33
2023-11-12T00:23:39.327Z,65.45
2023-11-12T00:24:43.346Z,65.71
2023-11-12T00:25:47.386Z,65.59
2023-11-12T00:26:51.058Z,64.45
2023-11-12T00:27:55.247Z,64.49
2023-11-12T00:28:58.874Z,64.44
2023-11-12T00:30:03.902Z,64.80
2023-11-12T00:31:07.800Z,64.95
2023-11-12T00:32:11.657Z,65.12
2023-11-12T00:33:15.178Z,65.27
2023-11-12T00:34:19.164Z,65.15
2023-11-12T00:35:22.331Z,65.23
2023-11-12T00:36:26.463Z,65.38
2023-11-12T00:37:29.892Z,65.48
2023-11-12T00:38:33.848Z,65.46
2023-11-12T00:39:37.724Z,65.36
2023-11-12T00:40:41.454Z,65.32
2023-11-12T00:41:44.751Z,65.81
2023-11-12T00:42:48.407Z,65.42
2023-11-12T00:43:51.986Z,65.34
2023-11-12T00:44:56.206Z,65.69
2023-11-12T00:46:00.702Z,65.49
2023-11-12T00:47:06.045Z,65.91
2023-11-12T00:48:09.459Z,66.38
2023-11-12T00:49:13.126Z,66.63
2023-11-12T00:50:16.916Z,66.51
2023-11-12T00:51:21.127Z,66.52
2023-11-12T00:52:24.711Z,66.84
2023-11-12T00:53:30.608Z,66.92
2023-11-12T00:54:33.767Z,66.67
2023-11-12T00:55:37.547Z,66.65
2023-11-12T00:56:40.726Z,67.14
2023-11-12T00:57:44.476Z,67.28
2023-11-12T00:58:48.217Z,67.45
2023-11-12T00:59:51.494Z,67.56
2023-11-12T01:00:55.077Z,67.58
2023-11-12T01:01:59.702Z,67.82
2023-11-12T01:03:03.638Z,68.13
2023-11-12T01:04:08.743Z,68.08
2023-11-12T01:05:13.127Z,68.10
2023-11-12T01:06:16.975Z,68.04
2023-11-12T01:07:20.311Z,67.89
2023-11-12T01:08:23.552Z,67.85
2023-11-12T01:09:29.236Z,68.06
2023-11-12T01:10:32.972Z,68.12
2023-11-12T01:11:38.603Z,67.69
2023-11-12T01:12:42.426Z,67.97
2023-11-12T01:13:46.598Z,68.27
2023-11-12T01:14:50.791Z,68.37
2023-11-12T01:15:56.556Z,68.21
2023-11-12T01:17:00.316Z,68.42
2023-11-12T01:18:05.076Z,68.88
2023-11-12T01:19:09.534Z,69.38
2023-11-12T01:20:17.157Z,68.88
2023-11-12T01:21:21.346Z,68.87
2023-11-12T01:22:25.124Z,68.83
2023-11-12T01:23:28.894Z,69.28
2023-11-12T01:24:32.550Z,69.40
2023-11-12T01:25:37.126Z,69.54
2023-11-12T01:26:40.860Z,69.75
2023-11-12T01:27:44.041Z,69.66
2023-11-12T01:28:47.987Z,69.63
2023-11-12T01:29:51.173Z,69.36
2023-11-12T01:30:55.076Z,69.70
2023-11-12T01:31:58.703Z,69.79
2023-11-12T01:33:04.559Z,70.01
2023-11-12T01:34:08.886Z,70.08
2023-11-12T01:35:12.533Z,70.49
2023-11-12T01:36:15.885Z,69.86
2023-11-12T01:37:19.428Z,69.89
2023-11-12T01:38:23.088Z,69.65
2023-11-12T01:39:27.719Z,69.99
2023-11-12T01:40:36.050Z,70.10
2023-11-12T01:41:39.314Z,69.98
2023-11-12T01:42:43.296Z,70.04
2023-11-12T01:43:46.682Z,70.23
2023-11-12T01:44:50.386Z,70.34
2023-11-12T01:45:53.799Z,70.36
2023-11-12T01:46:57.338Z,70.02
2023-11-12T01:48:02.089Z,69.92
2023-11-12T01:49:06.535Z,70.08
2023-11-12T01:50:13.330Z,70.02
2023-11-12T01:51:17.544Z,69.94
2023-11-12T01:52:22.434Z,70.57
2023-11-12T01:53:27.216Z,70.61
2023-11-12T01:54:31.922Z,70.72
2023-11-12T01:55:35.859Z,70.71
2023-11-12T01:56:40.232Z,70.65
2023-11-12T01:57:46.320Z,70.78
2023-11-12T01:58:51.795Z,70.89
2023-11-12T01:59:55.459Z,70.58
2023-11-12T02:00:59.383Z,70.69
2023-11-12T02:02:03.925Z,70.43
2023-11-12T02:03:10.012Z,70.75
2023-11-12T02:04:15.431Z,70.10
2023-11-12T02:05:19.981Z,70.25
2023-11-12T02:06:25.376Z,69.86
2023-11-12T02:07:29.339Z,70.05
2023-11-12T02:08:34.457Z,70.08
2023-11-12T02:09:38.000Z,70.00
2023-11-12T02:10:43.536Z,69.36
2023-11-12T02:11:47.012Z,69.59
2023-11-12T02:12:50.598Z,70.07
2023-11-12T02:13:55.486Z,70.05
2023-11-12T02:14:59.567Z,70.26
2023-11-12T02:16:03.824Z,70.30
2023-11-12T02:17:07.684Z,70.34
2023-11-12T02:18:11.332Z,70.12
2023-11-12T02:19:25.863Z,69.58
2023-11-12T02:20:29.477Z,69.35
2023-11-12T02:21:33.488Z,69.67
2023-11-12T02:22:37.768Z,69.12
2023-11-12T02:23:41.335Z,69.34
2023-11-12T02:24:44.450Z,69.12
2023-11-12T02:25:48.319Z,69.08
2023-11-12T02:26:52.311Z,69.13
2023-11-12T02:27:56.175Z,69.42
2023-11-12T02:28:59.628Z,69.21
2023-11-12T02:30:04.185Z,69.16
2023-11-12T02:31:07.782Z,69.39
2023-11-12T02:32:11.781Z,69.10
2023-11-12T02:33:15.373Z,69.80
2023-11-12T02:34:18.924Z,69.60
2023-11-12T02:35:22.385Z,69.25
2023-11-12T02:36:26.888Z,69.49
2023-11-12T02:37:31.372Z,69.24
2023-11-12T02:38:35.657Z,69.66
2023-11-12T02:39:41.959Z,69.07
2023-11-12T02:40:47.040Z,69.15
2023-11-12T02:41:50.352Z,69.43
2023-11-12T02:42:53.732Z,68.72
2023-11-12T02:43:57.625Z,68.71
2023-11-12T02:45:01.163Z,68.76
2023-11-12T02:46:05.976Z,68.74
2023-11-12T02:47:09.541Z,68.51
2023-11-12T02:48:13.103Z,68.85
2023-11-12T02:49:44.969Z,68.95
2023-11-12T02:50:49.052Z,68.98
2023-11-12T02:51:52.986Z,68.87
2023-11-12T02:52:59.031Z,68.92
2023-11-12T02:54:03.813Z,68.82
2023-11-12T02:55:09.792Z,68.89
2023-11-12T02:56:17.608Z,68.74
2023-11-12T02:57:22.756Z,68.34
2023-11-12T02:58:27.433Z,68.54
2023-11-12T02:59:31.292Z,68.27
2023-11-12T03:00:35.383Z,67.61
2023-11-12T03:01:39.126Z,67.42
2023-11-12T03:02:46.084Z,66.96
2023-11-12T03:03:49.925Z,66.99
2023-11-12T03:04:53.855Z,66.66
2023-11-12T03:05:57.142Z,66.82
2023-11-12T03:07:00.453Z,67.18
2023-11-12T03:08:05.354Z,67.45
2023-11-12T03:09:10.232Z,67.58
2023-11-12T03:10:13.954Z,67.25
2023-11-12T03:11:18.580Z,67.32
2023-11-12T03:12:22.407Z,67.41
2023-11-12T03:13:26.606Z,67.15
2023-11-12T03:14:30.501Z,66.77
2023-11-12T03:15:34.763Z,66.63
2023-11-12T03:16:38.744Z,66.94
2023-11-12T03:17:44.489Z,66.48
2023-11-12T03:18:50.499Z,65.77
2023-11-12T03:19:53.983Z,64.97
2023-11-12T03:20:58.097Z,65.26
2023-11-12T03:22:01.368Z,65.65
2023-11-12T03:23:04.865Z,65.47
2023-11-12T03:24:09.769Z,65.59
2023-11-12T03:25:13.344Z,64.97
2023-11-12T03:26:16.897Z,65.15
2023-11-12T03:27:20.322Z,64.85
2023-11-12T03:28:24.039Z,65.09
2023-11-12T03:29:27.521Z,64.74
2023-11-12T03:30:31.621Z,64.74
2023-11-12T03:31:35.067Z,64.63
2023-11-12T03:32:39.424Z,64.59
2023-11-12T03:33:43.042Z,64.56
2023-11-12T03:34:47.103Z,64.45
2023-11-12T03:35:50.936Z,64.23
2023-11-12T03:36:54.286Z,64.04
2023-11-12T03:37:57.602Z,64.28
2023-11-12T03:39:00.636Z,64.56
2023-11-12T03:40:06.362Z,64.53
2023-11-12T03:41:12.776Z,64.46
2023-11-12T03:42:17.198Z,64.54
2023-11-12T03:43:20.470Z,63.78
2023-11-12T03:44:23.911Z,63.82
2023-11-12T03:45:27.670Z,63.54
2023-11-12T03:46:31.078Z,62.87
2023-11-12T03:47:34.833Z,61.88
2023-11-12T03:48:38.826Z,62.10
2023-11-12T03:49:42.734Z,62.50
2023-11-12T03:50:46.284Z,61.76
2023-11-12T03:51:50.212Z,62.36
2023-11-12T03:52:53.447Z,62.57
2023-11-12T03:53:59.452Z,62.82
2023-11-12T03:55:06.184Z,62.98
2023-11-12T03:56:09.514Z,62.33
2023-11-12T03:57:14.890Z,62.10
2023-11-12T03:58:19.744Z,62.04
2023-11-12T03:59:23.419Z,62.02
2023-11-12T04:00:26.827Z,61.50
2023-11-12T04:01:30.188Z,60.88
2023-11-12T04:02:33.801Z,60.25
2023-11-12T04:03:37.678Z,60.35
2023-11-12T04:04:41.353Z,59.33
2023-11-12T04:05:45.600Z,59.43
2023-11-12T04:06:49.699Z,59.62
2023-11-12T04:07:53.367Z,59.47
2023-11-12T04:08:56.955Z,59.28
2023-11-12T04:10:05.900Z,59.10
2023-11-12T04:11:09.963Z,59.20
2023-11-12T04:12:13.532Z,59.18
2023-11-12T04:13:17.702Z,59.37
2023-11-12T04:14:22.426Z,59.56
2023-11-12T04:15:26.126Z,59.51
2023-11-12T04:16:29.870Z,59.14
2023-11-12T04:17:33.540Z,58.74
2023-11-12T04:18:37.600Z,59.25
2023-11-12T04:19:41.446Z,59.17
2023-11-12T04:20:45.475Z,59.60
2023-11-12T04:21:49.317Z,60.02
2023-11-12T04:22:53.186Z,59.35
2023-11-12T04:23:56.612Z,59.16
2023-11-12T04:25:00.053Z,59.15
2023-11-12T04:26:04.973Z,58.71
2023-11-12T04:27:08.943Z,58.72
2023-11-12T04:28:12.978Z,58.87
2023-11-12T04:29:16.641Z,59.05
2023-11-12T04:30:20.445Z,59.35
2023-11-12T04:31:24.101Z,59.29
2023-11-12T04:32:28.565Z,59.50
2023-11-12T04:33:32.908Z,59.23
2023-11-12T04:34:36.537Z,59.44
2023-11-12T04:35:39.930Z,59.31
2023-11-12T04:36:44.816Z,59.12
2023-11-12T04:37:48.683Z,59.52
2023-11-12T04:38:52.585Z,59.33
2023-11-12T04:39:56.340Z,59.31
2023-11-12T04:40:59.622Z,59.39
2023-11-12T04:42:03.515Z,59.47
2023-11-12T04:43:06.884Z,59.31
2023-11-12T04:44:10.972Z,59.21
2023-11-12T04:45:15.328Z,59.09
2023-11-12T04:46:19.877Z,58.95
2023-11-12T04:47:25.211Z,58.78
2023-11-12T04:48:28.595Z,58.86
2023-11-12T04:49:31.939Z,58.74
2023-11-12T04:50:36.334Z,58.72
2023-11-12T04:51:40.254Z,58.82
2023-11-12T04:52:43.726Z,58.23
2023-11-12T04:53:48.902Z,58.36
2023-11-12T04:54:52.645Z,58.28
2023-11-12T04:55:56.020Z,58.68
2023-11-12T04:56:59.521Z,58.49
2023-11-12T04:58:05.024Z,58.78
2023-11-12T04:59:08.276Z,58.60
2023-11-12T05:00:14.042Z,58.61
2023-11-12T05:01:17.661Z,58.34
2023-11-12T05:02:21.449Z,58.59
2023-11-12T05:03:25.437Z,58.71
2023-11-12T05:04:29.145Z,58.99
2023-11-12T05:05:32.688Z,59.11
2023-11-12T05:06:36.090Z,59.03
2023-11-12T05:07:39.834Z,59.05
2023-11-12T05:08:43.729Z,58.77
2023-11-12T05:09:47.417Z,58.51
2023-11-12T05:10:51.332Z,58.48
2023-11-12T05:11:55.556Z,58.16
2023-11-12T05:12:58.993Z,58.29
2023-11-12T05:14:02.471Z,57.95
2023-11-12T05:15:09.242Z,58.21
2023-11-12T05:16:12.947Z,58.61
2023-11-12T05:17:17.071Z,58.43
2023-11-12T05:18:22.354Z,58.41
2023-11-12T05:19:25.820Z,58.20
2023-11-12T05:20:29.387Z,57.76
2023-11-12T05:21:32.898Z,57.83
2023-11-12T05:22:36.264Z,57.72
2023-11-12T05:23:40.352Z,57.83
2023-11-12T05:24:44.370Z,58.06
2023-11-12T05:25:48.114Z,57.48
2023-11-12T05:26:51.694Z,57.68
2023-11-12T05:27:55.377Z,57.84
2023-11-12T05:28:59.462Z,57.89
2023-11-12T05:30:03.031Z,57.76
2023-11-12T05:31:07.874Z,57.70
2023-11-12T05:32:11.534Z,57.52
2023-11-12T05:33:15.272Z,57.67
2023-11-12T05:34:19.368Z,57.90
2023-11-12T05:35:23.460Z,58.02
2023-11-12T05:36:27.366Z,57.76
2023-11-12T05:37:30.753Z,57.28
2023-11-12T05:38:34.977Z,57.47
2023-11-12T05:39:38.669Z,57.43
2023-11-12T05:40:42.515Z,57.47
2023-11-12T05:41:45.997Z,57.34
2023-11-12T05:42:49.422Z,57.18
2023-11-12T05:43:53.386Z,56.95
2023-11-12T05:44:57.059Z,57.05
2023-11-12T05:46:00.716Z,57.07
2023-11-12T05:47:05.651Z,56.89
2023-11-12T05:48:11.228Z,57.10
2023-11-12T05:49:14.685Z,56.86
2023-11-12T05:50:18.581Z,57.01
2023-11-12T05:51:21.873Z,57.03
2023-11-12T05:52:25.408Z,56.51
2023-11-12T05:53:28.720Z,56.34
2023-11-12T05:54:32.556Z,56.51
2023-11-12T05:55:36.055Z,55.97
2023-11-12T05:56:39.721Z,55.66
2023-11-12T05:57:43.839Z,55.51
2023-11-12T05:58:47.888Z,55.49
2023-11-12T05:59:51.550Z,55.09
2023-11-12T06:00:57.306Z,54.63
2023-11-12T06:02:00.449Z,54.83
2023-11-12T06:03:04.091Z,54.91
2023-11-12T06:04:07.856Z,54.37
2023-11-12T06:05:11.297Z,54.03
2023-11-12T06:06:15.089Z,54.03
2023-11-12T06:07:19.233Z,53.53
2023-11-12T06:08:23.090Z,53.53
2023-11-12T06:09:27.230Z,53.28
2023-11-12T06:10:32.018Z,53.67
2023-11-12T06:11:39.338Z,53.50
2023-11-12T06:12:43.129Z,53.62
2023-11-12T06:13:46.211Z,53.31
2023-11-12T06:14:49.745Z,53.17
2023-11-12T06:15:53.282Z,53.38
2023-11-12T06:16:57.262Z,53.34
2023-11-12T06:18:00.882Z,53.25
2023-11-12T06:19:04.879Z,52.80
2023-11-12T06:20:11.771Z,52.75
2023-11-12T06:21:15.228Z,52.93
2023-11-12T06:22:18.767Z,52.95
2023-11-12T06:23:22.154Z,52.92
2023-11-12T06:24:25.658Z,52.62
2023-11-12T06:25:29.374Z,52.85
2023-11-12T06:26:33.147Z,52.86
2023-11-12T06:27:37.165Z,53.12
2023-11-12T06:28:41.927Z,53.07
2023-11-12T06:29:47.011Z,53.00
2023-11-12T06:30:52.070Z,52.87
2023-11-12T06:31:55.582Z,52.65
2023-11-12T06:33:01.977Z,52.08
2023-11-12T06:34:06.329Z,52.41
2023-11-12T06:35:11.268Z,52.65
2023-11-12T06:36:17.032Z,52.69
2023-11-12T06:37:20.374Z,52.82
2023-11-12T06:38:24.234Z,53.21
2023-11-12T06:39:28.111Z,52.78
2023-11-12T06:40:32.168Z,52.87
2023-11-12T06:41:36.261Z,53.13
2023-11-12T06:42:43.580Z,53.46
2023-11-12T06:43:47.386Z,53.72
2023-11-12T06:44:51.399Z,53.97
2023-11-12T06:45:55.805Z,54.02
2023-11-12T06:46:59.331Z,54.25
2023-11-12T06:48:03.422Z,54.46
2023-11-12T06:49:07.339Z,54.60
2023-11-12T06:50:14.507Z,54.32
2023-11-12T06:51:24.822Z,54.35
2023-11-12T06:52:28.573Z,54.66
2023-11-12T06:53:32.101Z,55.23
2023-11-12T06:54:35.679Z,55.35
2023-11-12T06:55:40.391Z,55.02
2023-11-12T06:56:43.979Z,55.49
2023-11-12T06:57:48.638Z,55.76
2023-11-12T06:58:52.772Z,55.49
2023-11-12T06:59:56.867Z,55.52
2023-11-12T07:01:00.219Z,55.71
2023-11-12T07:02:04.546Z,55.72
2023-11-12T07:03:08.066Z,55.79
2023-11-12T07:04:11.829Z,55.76
2023-11-12T07:05:17.712Z,55.80
2023-11-12T07:06:21.527Z,55.57
2023-11-12T07:07:25.605Z,55.47
2023-11-12T07:08:33.722Z,55.15
2023-11-12T07:09:37.243Z,55.16
2023-11-12T07:10:40.649Z,55.24
2023-11-12T07:11:44.771Z,55.12
2023-11-12T07:12:48.692Z,55.13
2023-11-12T07:13:52.371Z,55.09
2023-11-12T07:14:56.758Z,54.76
2023-11-12T07:16:00.267Z,54.98
2023-11-12T07:17:04.328Z,55.14
2023-11-12T07:18:08.311Z,55.00
2023-11-12T07:19:14.112Z,55.18
2023-11-12T07:20:18.092Z,54.94
2023-11-12T07:21:30.865Z,54.26
2023-11-12T07:22:36.693Z,53.96
2023-11-12T07:23:40.232Z,54.25
2023-11-12T07:24:44.357Z,54.08
2023-11-12T07:25:48.353Z,54.02
2023-11-12T07:26:51.862Z,53.85
2023-11-12T07:27:56.067Z,53.44
2023-11-12T07:28:59.798Z,53.63
2023-11-12T07:30:04.031Z,53.50
2023-11-12T07:31:10.268Z,53.33
2023-11-12T07:32:13.924Z,53.68
2023-11-12T07:33:17.399Z,53.18
2023-11-12T07:34:21.143Z,53.06
2023-11-12T07:35:26.077Z,53.19
2023-11-12T07:36:29.834Z,53.59
2023-11-12T07:37:33.618Z,53.21
2023-11-12T07:38:37.908Z,53.23
2023-11-12T07:39:41.457Z,52.92
2023-11-12T07:40:45.081Z,52.79
2023-11-12T07:41:48.467Z,52.88
2023-11-12T07:42:53.456Z,52.51
2023-11-12T07:43:57.151Z,52.94
2023-11-12T07:45:06.977Z,53.19
2023-11-12T07:46:16.522Z,53.30
2023-11-12T07:47:19.906Z,53.34
2023-11-12T07:48:23.701Z,52.99
2023-11-12T07:49:27.433Z,52.31
2023-11-12T07:50:31.193Z,52.50
2023-11-12T07:51:35.967Z,52.95
2023-11-12T07:52:42.255Z,52.57
2023-11-12T07:53:45.368Z,53.17
2023-11-12T07:54:48.915Z,53.34
2023-11-12T07:55:52.974Z,53.26
2023-11-12T07:56:56.546Z,52.83
2023-11-12T07:58:00.036Z,53.04
2023-11-12T07:59:04.254Z,53.10
2023-11-12T08:00:14.478Z,52.67
2023-11-12T08:01:18.461Z,52.00
2023-11-12T08:02:23.845Z,52.03
2023-11-12T08:03:27.417Z,52.24
2023-11-12T08:04:31.061Z,52.26
2023-11-12T08:05:35.649Z,52.12
2023-11-12T08:06:38.979Z,52.14
2023-11-12T08:07:42.785Z,52.28
2023-11-12T08:08:46.272Z,51.96
2023-11-12T08:09:51.001Z,51.09
2023-11-12T08:10:55.121Z,51.41
2023-11-12T08:11:58.689Z,51.21
2023-11-12T08:13:02.134Z,51.51
2023-11-12T08:14:05.675Z,51.34
2023-11-12T08:15:13.282Z,51.24
2023-11-12T08:16:16.572Z,51.52
2023-11-12T08:17:20.515Z,50.83
2023-11-12T08:18:24.992Z,50.51
2023-11-12T08:19:28.342Z,50.53
2023-11-12T08:20:31.880Z,50.51
2023-11-12T08:21:35.961Z,50.76
2023-11-12T08:22:40.061Z,49.94
2023-11-12T08:23:43.493Z,50.34
2023-11-12T08:24:47.576Z,50.61
2023-11-12T08:25:51.592Z,50.79
2023-11-12T08:26:56.044Z,50.35
2023-11-12T08:27:59.778Z,49.78
2023-11-12T08:29:03.386Z,50.06
2023-11-12T08:30:10.269Z,50.29
2023-11-12T08:31:13.605Z,50.29
2023-11-12T08:32:16.882Z,50.06
2023-11-12T08:33:20.474Z,49.78
2023-11-12T08:34:24.870Z,49.87
2023-11-12T08:35:30.743Z,49.99
2023-11-12T08:36:35.728Z,50.39
2023-11-12T08:37:41.884Z,49.34
2023-11-12T08:38:45.657Z,49.23
2023-11-12T08:39:49.512Z,48.23
2023-11-12T08:40:53.021Z,48.68
2023-11-12T08:41:56.554Z,48.38
2023-11-12T08:43:00.759Z,48.41
2023-11-12T08:44:04.803Z,48.29
2023-11-12T08:45:10.634Z,48.40
2023-11-12T08:46:16.315Z,48.60
2023-11-12T08:47:20.514Z,48.30
2023-11-12T08:48:32.216Z,48.48
2023-11-12T08:49:35.890Z,48.75
2023-11-12T08:50:40.388Z,48.80
2023-11-12T08:51:43.946Z,48.65
2023-11-12T08:52:47.702Z,48.17
2023-11-12T08:53:51.051Z,47.43
2023-11-12T08:54:55.125Z,47.47
2023-11-12T08:55:58.476Z,47.01
2023-11-12T08:57:04.369Z,47.39
2023-11-12T08:58:09.530Z,46.97
2023-11-12T08:59:13.779Z,46.91
2023-11-12T09:00:21.550Z,46.95
2023-11-12T09:01:26.580Z,47.19
2023-11-12T09:02:29.962Z,46.86
2023-11-12T09:03:33.477Z,46.53
2023-11-12T09:04:38.142Z,46.65
2023-11-12T09:05:41.825Z,46.50
2023-11-12T09:06:45.416Z,46.52
2023-11-12T09:07:50.591Z,46.36
2023-11-12T09:08:56.010Z,46.60
2023-11-12T09:10:00.318Z,46.61
2023-11-12T09:11:06.258Z,46.51
2023-11-12T09:12:09.984Z,45.78
2023-11-12T09:13:14.333Z,46.39
2023-11-12T09:14:18.850Z,46.47
2023-11-12T09:15:22.324Z,46.62
2023-11-12T09:16:27.095Z,46.64
2023-11-12T09:17:30.681Z,47.07
2023-11-12T09:18:34.614Z,46.90
2023-11-12T09:19:37.962Z,47.06
2023-11-12T09:20:41.444Z,46.27
2023-11-12T09:21:45.649Z,45.99
2023-11-12T09:22:50.930Z,45.94
2023-11-12T09:23:56.002Z,46.26
2023-11-12T09:25:08.888Z,46.33
2023-11-12T09:26:22.159Z,46.63
2023-11-12T09:27:28.103Z,45.43
2023-11-12T09:28:32.124Z,45.64
2023-11-12T09:29:38.136Z,45.62
2023-11-12T09:30:49.682Z,45.84
2023-11-12T09:32:01.202Z,45.81
2023-11-12T09:33:07.266Z,45.95
2023-11-12T09:34:10.729Z,45.66
2023-11-12T09:35:17.251Z,45.81
2023-11-12T09:36:20.758Z,45.16
2023-11-12T09:37:25.027Z,45.05
2023-11-12T09:38:28.341Z,45.30
2023-11-12T09:39:33.577Z,45.41
2023-11-12T09:40:37.874Z,45.43
2023-11-12T09:41:47.079Z,45.15
2023-11-12T09:42:54.373Z,45.53
2023-11-12T09:44:04.136Z,45.44
2023-11-12T09:45:10.390Z,45.00
2023-11-12T09:46:14.975Z,44.89
2023-11-12T09:47:33.042Z,45.39
2023-11-12T09:48:39.898Z,45.69
2023-11-12T09:49:45.202Z,45.88
2023-11-12T09:50:49.770Z,45.32
2023-11-12T09:51:53.850Z,45.17
2023-11-12T09:53:04.561Z,44.75
2023-11-12T09:54:12.404Z,44.67
2023-11-12T09:55:17.655Z,44.68
2023-11-12T09:56:26.056Z,44.61
2023-11-12T09:57:30.007Z,44.72
2023-11-12T09:58:33.603Z,45.26
2023-11-12T09:59:37.456Z,44.97
2023-11-12T10:00:41.181Z,44.69
2023-11-12T10:01:48.942Z,44.50
2023-11-12T10:02:53.540Z,44.76
2023-11-12T10:03:57.222Z,44.94
2023-11-12T10:05:10.721Z,44.91
2023-11-12T10:06:14.575Z,44.83
2023-11-12T10:07:19.300Z,44.93
2023-11-12T10:08:24.781Z,44.96
2023-11-12T10:09:29.495Z,45.03
2023-11-12T10:10:34.856Z,44.69
2023-11-12T10:11:39.763Z,43.98
2023-11-12T10:12:46.604Z,43.93
2023-11-12T10:13:52.549Z,44.10
2023-11-12T10:15:03.016Z,44.07
2023-11-12T10:16:23.929Z,43.08
2023-11-12T10:17:28.125Z,42.85
2023-11-12T10:18:31.881Z,43.08
2023-11-12T10:19:36.369Z,43.52
2023-11-12T10:20:42.876Z,43.59
2023-11-12T10:21:57.534Z,43.37
2023-11-12T10:23:02.546Z,42.94
2023-11-12T10:24:11.331Z,42.74
2023-11-12T10:25:35.269Z,42.58
2023-11-12T10:26:39.223Z,42.62
2023-11-12T10:27:57.447Z,43.22
2023-11-12T10:29:01.079Z,42.91
2023-11-12T10:30:23.676Z,42.92
2023-11-12T10:31:38.078Z,42.67
2023-11-12T10:32:41.572Z,42.79
2023-11-12T10:34:01.361Z,42.57
2023-11-12T10:35:06.560Z,42.68
2023-11-12T10:36:14.847Z,43.11
2023-11-12T10:37:20.116Z,43.21
2023-11-12T10:38:24.141Z,42.33
2023-11-12T10:39:34.618Z,41.91
2023-11-12T10:40:38.212Z,42.22
2023-11-12T10:41:41.332Z,42.40
2023-11-12T10:42:44.878Z,42.02
2023-11-12T10:44:00.176Z,42.28
2023-11-12T10:45:07.807Z,42.46
2023-11-12T10:46:12.727Z,41.77
2023-11-12T10:47:21.509Z,42.07
2023-11-12T10:48:32.321Z,42.22
2023-11-12T10:49:40.163Z,42.37
2023-11-12T10:50:45.394Z,42.45
2023-11-12T10:51:51.684Z,42.83
2023-11-12T10:52:56.752Z,42.72
2023-11-12T10:54:03.563Z,42.70
2023-11-12T10:55:10.895Z,42.70
2023-11-12T10:56:16.603Z,42.66
2023-11-12T10:57:22.918Z,42.63
2023-11-12T10:58:29.098Z,42.76
2023-11-12T10:59:38.174Z,42.48
2023-11-12T11:00:41.809Z,42.02
2023-11-12T11:01:45.597Z,42.13
2023-11-12T11:02:50.043Z,42.12
2023-11-12T11:03:56.346Z,41.98
2023-11-12T11:05:01.263Z,42.32
2023-11-12T11:06:09.223Z,42.40
2023-11-12T11:07:13.144Z,42.63
2023-11-12T11:08:16.732Z,42.30
2023-11-12T11:09:23.175Z,41.29
2023-11-12T11:10:28.263Z,40.91
2023-11-12T11:11:33.999Z,40.98
2023-11-12T11:12:38.617Z,40.57
2023-11-12T11:13:43.201Z,40.39
2023-11-12T11:14:47.042Z,40.52
2023-11-12T11:15:55.814Z,40.71
2023-11-12T11:16:59.471Z,40.48
2023-11-12T11:18:05.902Z,39.87
2023-11-12T11:19:10.417Z,39.71
2023-11-12T11:20:14.357Z,40.14
2023-11-12T11:21:19.642Z,40.26
2023-11-12T11:22:26.020Z,40.52
2023-11-12T11:23:53.617Z,40.43
2023-11-12T11:24:59.476Z,40.91
2023-11-12T11:26:39.421Z,41.35
2023-11-12T11:27:46.444Z,41.76
2023-11-12T11:29:15.448Z,41.33
2023-11-12T11:30:20.923Z,40.83
2023-11-12T11:31:24.498Z,40.26
2023-11-12T11:32:28.644Z,39.58
2023-11-12T11:33:48.176Z,39.61
2023-11-12T11:34:54.322Z,40.25
2023-11-12T11:36:09.020Z,40.23
2023-11-12T11:37:13.112Z,39.41
2023-11-12T11:38:18.172Z,39.46
2023-11-12T11:39:27.618Z,39.73
2023-11-12T11:40:36.422Z,39.09
2023-11-12T11:42:13.899Z,38.38
2023-11-12T11:43:32.405Z,38.16
2023-11-12T11:44:49.889Z,38.38
2023-11-12T11:46:18.086Z,38.67
2023-11-12T11:47:26.500Z,38.31
2023-11-12T11:48:30.074Z,38.64
2023-11-12T11:49:33.911Z,37.59
2023-11-12T11:50:46.546Z,37.60
2023-11-12T11:51:52.157Z,38.11
2023-11-12T11:52:56.258Z,37.95
2023-11-12T11:54:05.431Z,37.73
2023-11-12T11:55:23.067Z,37.51
2023-11-12T11:56:27.569Z,36.86
2023-11-12T11:57:32.263Z,36.52
2023-11-12T11:58:46.510Z,36.66
2023-11-12T11:59:51.345Z,36.28
2023-11-12T12:01:01.317Z,36.19
2023-11-12T12:02:06.954Z,36.59
2023-11-12T12:03:21.984Z,36.71
2023-11-12T12:04:28.904Z,35.63
2023-11-12T12:05:34.388Z,35.61
2023-11-12T12:06:45.270Z,35.97
2023-11-12T12:08:00.766Z,35.95
2023-11-12T12:09:10.156Z,35.63
2023-11-12T12:10:28.975Z,35.84
2023-11-12T12:11:34.497Z,35.28
2023-11-12T12:12:40.287Z,35.34
2023-11-12T12:13:56.822Z,35.35
2023-11-12T12:15:00.124Z,35.73
2023-11-12T12:16:05.700Z,36.43
2023-11-12T12:17:09.705Z,36.95
2023-11-12T12:18:24.292Z,37.06
2023-11-12T12:19:27.852Z,36.39
2023-11-12T12:20:39.987Z,36.63
2023-11-12T12:21:49.774Z,37.27
2023-11-12T12:22:55.766Z,37.72
2023-11-12T12:23:59.352Z,37.50
2023-11-12T12:25:04.819Z,36.98
2023-11-12T12:26:08.393Z,37.40
2023-11-12T12:27:13.437Z,38.06
2023-11-12T12:28:21.409Z,38.12
2023-11-12T12:29:26.533Z,38.03
2023-11-12T12:30:30.680Z,37.51
2023-11-12T12:31:34.811Z,38.05
2023-11-12T12:32:38.519Z,37.81
2023-11-12T12:33:43.337Z,37.46
2023-11-12T12:34:58.527Z,36.77
2023-11-12T12:36:01.249Z,37.50
2023-11-12T12:37:10.218Z,37.82
2023-11-12T12:38:13.901Z,37.37
2023-11-12T12:39:17.494Z,37.25
2023-11-12T12:40:28.525Z,37.65
2023-11-12T12:41:33.486Z,38.57
2023-11-12T12:42:39.461Z,38.62
2023-11-12T12:43:57.432Z,38.87
2023-11-12T12:45:01.454Z,38.58
2023-11-12T12:46:05.962Z,38.77
2023-11-12T12:47:10.554Z,38.94
2023-11-12T12:48:15.702Z,38.65
2023-11-12T12:49:33.829Z,39.13
2023-11-12T12:50:40.552Z,39.00
2023-11-12T12:51:53.396Z,39.18
2023-11-12T12:53:16.118Z,39.81
2023-11-12T12:54:20.975Z,40.27
2023-11-12T12:55:25.004Z,40.31
2023-11-12T12:56:28.233Z,40.10
2023-11-12T12:57:31.849Z,40.45
2023-11-12T12:58:39.174Z,39.36
2023-11-12T12:59:43.183Z,39.42
2023-11-12T13:00:46.882Z,40.10
2023-11-12T13:01:50.746Z,40.20
2023-11-12T13:02:54.858Z,40.62
2023-11-12T13:03:59.159Z,40.25
2023-11-12T13:05:05.122Z,39.81
2023-11-12T13:06:11.227Z,38.63
2023-11-12T13:07:16.126Z,39.04
2023-11-12T13:08:20.243Z,39.53
2023-11-12T13:09:27.818Z,39.70
2023-11-12T13:10:32.638Z,39.50
2023-11-12T13:11:36.040Z,39.38
2023-11-12T13:12:43.554Z,39.34
2023-11-12T13:13:48.603Z,39.33
2023-11-12T13:14:52.337Z,39.67
2023-11-12T13:15:56.192Z,39.95
2023-11-12T13:17:01.823Z,39.26
2023-11-12T13:18:07.244Z,39.22
2023-11-12T13:19:15.022Z,39.12
2023-11-12T13:20:20.638Z,38.80
2023-11-12T13:21:25.557Z,38.15
2023-11-12T13:22:29.410Z,38.49
2023-11-12T13:23:33.660Z,38.29
2023-11-12T13:24:39.859Z,38.49
2023-11-12T13:25:43.634Z,38.39
2023-11-12T13:26:49.506Z,38.68
2023-11-12T13:27:55.640Z,38.90
2023-11-12T13:28:58.972Z,38.66
2023-11-12T13:30:05.527Z,38.60
2023-11-12T13:31:09.291Z,39.09
2023-11-12T13:32:15.996Z,38.92
2023-11-12T13:33:19.574Z,39.25
2023-11-12T13:34:24.879Z,38.23
2023-11-12T13:35:30.368Z,39.25
2023-11-12T13:36:34.268Z,39.18
2023-11-12T13:37:38.664Z,39.23
2023-11-12T13:38:42.012Z,39.02
2023-11-12T13:39:46.898Z,39.48
2023-11-12T13:40:52.287Z,39.70
2023-11-12T13:41:58.735Z,39.80
2023-11-12T13:43:02.477Z,40.09
2023-11-12T13:44:06.857Z,39.47
2023-11-12T13:45:12.835Z,39.76
2023-11-12T13:46:16.519Z,39.36
2023-11-12T13:47:23.358Z,39.32
2023-11-12T13:48:26.973Z,39.54
2023-11-12T13:49:31.223Z,39.31
2023-11-12T13:50:36.385Z,39.26
2023-11-12T13:51:41.968Z,39.76
2023-11-12T13:52:47.839Z,39.83
2023-11-12T13:53:54.170Z,39.88
2023-11-12T13:54:58.684Z,39.81
2023-11-12T13:56:03.524Z,39.45
2023-11-12T13:57:07.431Z,38.58
2023-11-12T13:58:11.952Z,37.62
2023-11-12T13:59:17.816Z,37.82
2023-11-12T14:00:29.433Z,38.58
2023-11-12T14:01:35.277Z,39.14